sensor_id;sensor_type;location;lat;lon;timestamp;P1;durP1;ratioP1;P2;durP2;ratioP2
15990;SDS011;8100;50.994;4.538;2023-05-21T00:00:52;2.58;;;2.08;;
15990;SDS011;8100;50.994;4.538;2023-05-21T00:03:41;1.98;;;1.80;;
15990;SDS011;8100;50.994;4.538;2023-05-21T00:06:30;2.42;;;1.70;;
15990;SDS011;8100;50.994;4.538;2023-05-21T00:09:17;5.18;;;2.20;;
15990;SDS011;8100;50.994;4.538;2023-05-21T00:12:05;2.83;;;2.00;;
15990;SDS011;8100;50.994;4.538;2023-05-21T00:14:53;4.55;;;1.92;;
15990;SDS011;8100;50.994;4.538;2023-05-21T00:17:40;3.95;;;2.47;;
15990;SDS011;8100;50.994;4.538;2023-05-21T00:20:29;2.20;;;1.80;;
15990;SDS011;8100;50.994;4.538;2023-05-21T00:23:17;3.80;;;2.13;;
15990;SDS011;8100;50.994;4.538;2023-05-21T00:26:05;4.18;;;2.00;;
15990;SDS011;8100;50.994;4.538;2023-05-21T00:28:53;3.38;;;2.13;;
15990;SDS011;8100;50.994;4.538;2023-05-21T00:31:40;3.08;;;1.83;;
15990;SDS011;8100;50.994;4.538;2023-05-21T00:34:27;3.28;;;2.05;;
15990;SDS011;8100;50.994;4.538;2023-05-21T00:37:16;4.15;;;2.28;;
15990;SDS011;8100;50.994;4.538;2023-05-21T00:40:04;2.45;;;2.00;;
15990;SDS011;8100;50.994;4.538;2023-05-21T00:42:53;3.72;;;2.50;;
15990;SDS011;8100;50.994;4.538;2023-05-21T00:45:41;6.03;;;2.40;;
15990;SDS011;8100;50.994;4.538;2023-05-21T00:48:31;3.70;;;2.28;;
15990;SDS011;8100;50.994;4.538;2023-05-21T00:51:18;3.67;;;2.28;;
15990;SDS011;8100;50.994;4.538;2023-05-21T00:54:07;5.05;;;2.80;;
15990;SDS011;8100;50.994;4.538;2023-05-21T00:56:55;3.03;;;1.95;;
15990;SDS011;8100;50.994;4.538;2023-05-21T00:59:42;5.47;;;2.50;;
15990;SDS011;8100;50.994;4.538;2023-05-21T01:02:30;3.75;;;2.20;;
15990;SDS011;8100;50.994;4.538;2023-05-21T01:05:19;3.05;;;2.42;;
15990;SDS011;8100;50.994;4.538;2023-05-21T01:08:07;2.90;;;2.33;;
15990;SDS011;8100;50.994;4.538;2023-05-21T01:10:56;3.50;;;2.10;;
15990;SDS011;8100;50.994;4.538;2023-05-21T01:13:44;2.38;;;2.17;;
15990;SDS011;8100;50.994;4.538;2023-05-21T01:16:33;2.95;;;2.45;;
15990;SDS011;8100;50.994;4.538;2023-05-21T01:19:22;4.10;;;1.95;;
15990;SDS011;8100;50.994;4.538;2023-05-21T01:22:10;3.60;;;2.50;;
15990;SDS011;8100;50.994;4.538;2023-05-21T01:25:01;3.78;;;2.40;;
15990;SDS011;8100;50.994;4.538;2023-05-21T01:27:49;3.97;;;2.30;;
15990;SDS011;8100;50.994;4.538;2023-05-21T01:30:37;2.72;;;2.30;;
15990;SDS011;8100;50.994;4.538;2023-05-21T01:33:28;4.05;;;2.58;;
15990;SDS011;8100;50.994;4.538;2023-05-21T01:36:20;3.67;;;2.47;;
15990;SDS011;8100;50.994;4.538;2023-05-21T01:39:13;3.03;;;2.28;;
15990;SDS011;8100;50.994;4.538;2023-05-21T01:42:07;5.93;;;2.30;;
15990;SDS011;8100;50.994;4.538;2023-05-21T01:44:56;3.53;;;2.40;;
15990;SDS011;8100;50.994;4.538;2023-05-21T01:47:45;2.63;;;2.33;;
15990;SDS011;8100;50.994;4.538;2023-05-21T01:50:34;4.13;;;2.63;;
15990;SDS011;8100;50.994;4.538;2023-05-21T01:53:23;4.55;;;2.53;;
15990;SDS011;8100;50.994;4.538;2023-05-21T01:56:11;3.40;;;2.30;;
15990;SDS011;8100;50.994;4.538;2023-05-21T01:59:01;3.60;;;2.30;;
15990;SDS011;8100;50.994;4.538;2023-05-21T02:01:49;4.97;;;2.35;;
15990;SDS011;8100;50.994;4.538;2023-05-21T02:04:36;3.25;;;2.60;;
15990;SDS011;8100;50.994;4.538;2023-05-21T02:07:25;2.75;;;2.38;;
15990;SDS011;8100;50.994;4.538;2023-05-21T02:10:17;4.78;;;2.60;;
15990;SDS011;8100;50.994;4.538;2023-05-21T02:13:04;4.93;;;2.53;;
15990;SDS011;8100;50.994;4.538;2023-05-21T02:15:53;4.80;;;2.55;;
15990;SDS011;8100;50.994;4.538;2023-05-21T02:18:40;3.67;;;2.72;;
15990;SDS011;8100;50.994;4.538;2023-05-21T02:21:28;2.83;;;2.47;;
15990;SDS011;8100;50.994;4.538;2023-05-21T02:24:16;4.00;;;2.55;;
15990;SDS011;8100;50.994;4.538;2023-05-21T02:27:03;3.75;;;2.45;;
15990;SDS011;8100;50.994;4.538;2023-05-21T02:29:51;2.95;;;2.50;;
15990;SDS011;8100;50.994;4.538;2023-05-21T02:32:40;4.07;;;3.22;;
15990;SDS011;8100;50.994;4.538;2023-05-21T02:35:28;4.35;;;2.75;;
15990;SDS011;8100;50.994;4.538;2023-05-21T02:38:16;4.25;;;2.60;;
15990;SDS011;8100;50.994;4.538;2023-05-21T02:41:07;3.67;;;2.75;;
15990;SDS011;8100;50.994;4.538;2023-05-21T02:43:55;3.65;;;2.60;;
15990;SDS011;8100;50.994;4.538;2023-05-21T02:46:42;4.25;;;2.90;;
15990;SDS011;8100;50.994;4.538;2023-05-21T02:49:31;3.55;;;2.78;;
15990;SDS011;8100;50.994;4.538;2023-05-21T02:52:19;3.60;;;2.75;;
15990;SDS011;8100;50.994;4.538;2023-05-21T02:55:08;4.07;;;2.83;;
15990;SDS011;8100;50.994;4.538;2023-05-21T02:57:55;3.97;;;2.60;;
15990;SDS011;8100;50.994;4.538;2023-05-21T03:00:43;3.53;;;2.80;;
15990;SDS011;8100;50.994;4.538;2023-05-21T03:03:30;6.32;;;3.35;;
15990;SDS011;8100;50.994;4.538;2023-05-21T03:06:19;4.72;;;3.10;;
15990;SDS011;8100;50.994;4.538;2023-05-21T03:09:06;4.90;;;2.78;;
15990;SDS011;8100;50.994;4.538;2023-05-21T03:11:54;4.72;;;3.03;;
15990;SDS011;8100;50.994;4.538;2023-05-21T03:14:41;3.40;;;2.80;;
15990;SDS011;8100;50.994;4.538;2023-05-21T03:17:30;3.75;;;2.88;;
15990;SDS011;8100;50.994;4.538;2023-05-21T03:20:18;3.50;;;2.72;;
15990;SDS011;8100;50.994;4.538;2023-05-21T03:23:06;3.13;;;2.60;;
15990;SDS011;8100;50.994;4.538;2023-05-21T03:25:54;5.78;;;3.10;;
15990;SDS011;8100;50.994;4.538;2023-05-21T03:28:41;8.10;;;3.08;;
15990;SDS011;8100;50.994;4.538;2023-05-21T03:31:28;5.78;;;3.15;;
15990;SDS011;8100;50.994;4.538;2023-05-21T03:34:16;4.03;;;3.13;;
15990;SDS011;8100;50.994;4.538;2023-05-21T03:37:04;4.82;;;3.20;;
15990;SDS011;8100;50.994;4.538;2023-05-21T03:39:53;5.40;;;3.15;;
15990;SDS011;8100;50.994;4.538;2023-05-21T03:42:40;3.55;;;2.70;;
15990;SDS011;8100;50.994;4.538;2023-05-21T03:45:27;3.45;;;3.15;;
15990;SDS011;8100;50.994;4.538;2023-05-21T03:48:15;4.50;;;3.10;;
15990;SDS011;8100;50.994;4.538;2023-05-21T03:51:02;3.75;;;2.78;;
15990;SDS011;8100;50.994;4.538;2023-05-21T03:53:50;4.20;;;2.90;;
15990;SDS011;8100;50.994;4.538;2023-05-21T03:56:38;3.80;;;3.15;;
15990;SDS011;8100;50.994;4.538;2023-05-21T03:59:26;3.38;;;2.90;;
15990;SDS011;8100;50.994;4.538;2023-05-21T04:02:13;4.22;;;2.88;;
15990;SDS011;8100;50.994;4.538;2023-05-21T04:05:00;6.28;;;2.92;;
15990;SDS011;8100;50.994;4.538;2023-05-21T04:07:48;4.32;;;3.20;;
15990;SDS011;8100;50.994;4.538;2023-05-21T04:10:35;5.03;;;3.28;;
15990;SDS011;8100;50.994;4.538;2023-05-21T04:13:24;4.25;;;3.20;;
15990;SDS011;8100;50.994;4.538;2023-05-21T04:16:12;3.92;;;3.10;;
15990;SDS011;8100;50.994;4.538;2023-05-21T04:19:03;6.15;;;3.30;;
15990;SDS011;8100;50.994;4.538;2023-05-21T04:21:50;4.97;;;3.28;;
15990;SDS011;8100;50.994;4.538;2023-05-21T04:24:38;3.83;;;3.13;;
15990;SDS011;8100;50.994;4.538;2023-05-21T04:27:25;5.65;;;3.40;;
15990;SDS011;8100;50.994;4.538;2023-05-21T04:30:14;4.47;;;3.33;;
15990;SDS011;8100;50.994;4.538;2023-05-21T04:33:01;4.05;;;3.47;;
15990;SDS011;8100;50.994;4.538;2023-05-21T04:35:49;5.57;;;3.15;;
15990;SDS011;8100;50.994;4.538;2023-05-21T04:38:37;6.75;;;2.92;;
15990;SDS011;8100;50.994;4.538;2023-05-21T04:41:26;4.30;;;3.20;;
15990;SDS011;8100;50.994;4.538;2023-05-21T04:44:13;4.72;;;3.10;;
15990;SDS011;8100;50.994;4.538;2023-05-21T04:47:02;5.60;;;3.20;;
15990;SDS011;8100;50.994;4.538;2023-05-21T04:49:50;4.68;;;3.30;;
15990;SDS011;8100;50.994;4.538;2023-05-21T04:52:38;4.38;;;3.40;;
15990;SDS011;8100;50.994;4.538;2023-05-21T04:55:25;5.00;;;3.00;;
15990;SDS011;8100;50.994;4.538;2023-05-21T04:58:13;3.97;;;3.13;;
15990;SDS011;8100;50.994;4.538;2023-05-21T05:01:02;4.75;;;3.03;;
15990;SDS011;8100;50.994;4.538;2023-05-21T05:03:50;5.53;;;3.30;;
15990;SDS011;8100;50.994;4.538;2023-05-21T05:06:38;6.30;;;3.30;;
15990;SDS011;8100;50.994;4.538;2023-05-21T05:09:25;4.03;;;3.20;;
15990;SDS011;8100;50.994;4.538;2023-05-21T05:12:14;4.25;;;3.35;;
15990;SDS011;8100;50.994;4.538;2023-05-21T05:15:01;4.35;;;3.38;;
15990;SDS011;8100;50.994;4.538;2023-05-21T05:17:49;6.05;;;3.70;;
15990;SDS011;8100;50.994;4.538;2023-05-21T05:20:38;4.93;;;3.38;;
15990;SDS011;8100;50.994;4.538;2023-05-21T05:23:26;4.32;;;3.58;;
15990;SDS011;8100;50.994;4.538;2023-05-21T05:26:13;4.45;;;3.28;;
15990;SDS011;8100;50.994;4.538;2023-05-21T05:29:00;6.15;;;3.55;;
15990;SDS011;8100;50.994;4.538;2023-05-21T05:31:48;5.15;;;3.60;;
15990;SDS011;8100;50.994;4.538;2023-05-21T05:34:35;3.70;;;3.00;;
15990;SDS011;8100;50.994;4.538;2023-05-21T05:37:24;4.55;;;3.63;;
15990;SDS011;8100;50.994;4.538;2023-05-21T05:40:11;4.38;;;3.50;;
15990;SDS011;8100;50.994;4.538;2023-05-21T05:42:59;4.50;;;3.55;;
15990;SDS011;8100;50.994;4.538;2023-05-21T05:45:46;4.75;;;3.47;;
15990;SDS011;8100;50.994;4.538;2023-05-21T05:48:33;4.75;;;3.60;;
15990;SDS011;8100;50.994;4.538;2023-05-21T05:51:21;4.45;;;3.60;;
15990;SDS011;8100;50.994;4.538;2023-05-21T05:54:09;5.85;;;3.72;;
15990;SDS011;8100;50.994;4.538;2023-05-21T05:56:57;5.00;;;3.70;;
15990;SDS011;8100;50.994;4.538;2023-05-21T05:59:44;5.60;;;3.83;;
15990;SDS011;8100;50.994;4.538;2023-05-21T06:02:31;5.05;;;3.85;;
15990;SDS011;8100;50.994;4.538;2023-05-21T06:05:19;5.63;;;3.72;;
15990;SDS011;8100;50.994;4.538;2023-05-21T06:08:07;4.80;;;3.83;;
15990;SDS011;8100;50.994;4.538;2023-05-21T06:10:56;4.47;;;3.50;;
15990;SDS011;8100;50.994;4.538;2023-05-21T06:13:43;5.00;;;4.20;;
15990;SDS011;8100;50.994;4.538;2023-05-21T06:16:31;4.63;;;3.83;;
15990;SDS011;8100;50.994;4.538;2023-05-21T06:19:18;4.22;;;3.58;;
15990;SDS011;8100;50.994;4.538;2023-05-21T06:22:05;5.13;;;3.78;;
15990;SDS011;8100;50.994;4.538;2023-05-21T06:24:52;6.10;;;4.00;;
15990;SDS011;8100;50.994;4.538;2023-05-21T06:27:41;5.07;;;3.92;;
15990;SDS011;8100;50.994;4.538;2023-05-21T06:30:28;4.38;;;3.35;;
15990;SDS011;8100;50.994;4.538;2023-05-21T06:33:16;5.97;;;3.95;;
15990;SDS011;8100;50.994;4.538;2023-05-21T06:36:03;5.05;;;3.45;;
15990;SDS011;8100;50.994;4.538;2023-05-21T06:38:51;5.90;;;3.80;;
15990;SDS011;8100;50.994;4.538;2023-05-21T06:41:38;5.97;;;4.25;;
15990;SDS011;8100;50.994;4.538;2023-05-21T06:44:27;5.32;;;3.72;;
15990;SDS011;8100;50.994;4.538;2023-05-21T06:47:14;4.72;;;4.05;;
15990;SDS011;8100;50.994;4.538;2023-05-21T06:50:02;4.80;;;4.28;;
15990;SDS011;8100;50.994;4.538;2023-05-21T06:52:49;7.13;;;4.07;;
15990;SDS011;8100;50.994;4.538;2023-05-21T06:55:37;5.47;;;4.35;;
15990;SDS011;8100;50.994;4.538;2023-05-21T06:58:24;6.07;;;4.50;;
15990;SDS011;8100;50.994;4.538;2023-05-21T07:01:17;5.00;;;4.00;;
15990;SDS011;8100;50.994;4.538;2023-05-21T07:04:06;5.30;;;4.32;;
15990;SDS011;8100;50.994;4.538;2023-05-21T07:06:54;4.88;;;4.35;;
15990;SDS011;8100;50.994;4.538;2023-05-21T07:09:41;4.70;;;4.07;;
15990;SDS011;8100;50.994;4.538;2023-05-21T07:12:28;7.88;;;4.68;;
15990;SDS011;8100;50.994;4.538;2023-05-21T07:15:16;6.53;;;4.25;;
15990;SDS011;8100;50.994;4.538;2023-05-21T07:18:05;5.00;;;4.13;;
15990;SDS011;8100;50.994;4.538;2023-05-21T07:20:52;5.03;;;4.00;;
15990;SDS011;8100;50.994;4.538;2023-05-21T07:23:40;6.47;;;4.38;;
15990;SDS011;8100;50.994;4.538;2023-05-21T07:26:27;5.82;;;4.07;;
15990;SDS011;8100;50.994;4.538;2023-05-21T07:29:14;8.38;;;4.68;;
15990;SDS011;8100;50.994;4.538;2023-05-21T07:32:02;5.30;;;4.07;;
15990;SDS011;8100;50.994;4.538;2023-05-21T07:34:51;7.03;;;4.90;;
15990;SDS011;8100;50.994;4.538;2023-05-21T07:37:38;6.18;;;4.70;;
15990;SDS011;8100;50.994;4.538;2023-05-21T07:40:26;6.50;;;3.78;;
15990;SDS011;8100;50.994;4.538;2023-05-21T07:43:13;7.13;;;4.50;;
15990;SDS011;8100;50.994;4.538;2023-05-21T07:46:00;7.10;;;4.95;;
15990;SDS011;8100;50.994;4.538;2023-05-21T07:48:48;6.32;;;5.20;;
15990;SDS011;8100;50.994;4.538;2023-05-21T07:51:36;7.00;;;4.60;;
15990;SDS011;8100;50.994;4.538;2023-05-21T07:54:24;6.55;;;4.68;;
15990;SDS011;8100;50.994;4.538;2023-05-21T07:57:11;6.28;;;4.90;;
15990;SDS011;8100;50.994;4.538;2023-05-21T07:59:58;8.07;;;4.47;;
15990;SDS011;8100;50.994;4.538;2023-05-21T08:02:46;7.22;;;4.93;;
15990;SDS011;8100;50.994;4.538;2023-05-21T08:05:33;6.82;;;4.68;;
15990;SDS011;8100;50.994;4.538;2023-05-21T08:08:22;6.45;;;4.95;;
15990;SDS011;8100;50.994;4.538;2023-05-21T08:11:11;6.50;;;4.72;;
15990;SDS011;8100;50.994;4.538;2023-05-21T08:13:58;9.52;;;5.50;;
15990;SDS011;8100;50.994;4.538;2023-05-21T08:16:45;6.00;;;4.93;;
15990;SDS011;8100;50.994;4.538;2023-05-21T08:19:32;6.53;;;4.88;;
15990;SDS011;8100;50.994;4.538;2023-05-21T08:22:20;8.35;;;5.35;;
15990;SDS011;8100;50.994;4.538;2023-05-21T08:25:09;6.22;;;4.55;;
15990;SDS011;8100;50.994;4.538;2023-05-21T08:27:56;6.45;;;5.05;;
15990;SDS011;8100;50.994;4.538;2023-05-21T08:30:43;9.30;;;6.13;;
15990;SDS011;8100;50.994;4.538;2023-05-21T08:33:33;6.20;;;4.85;;
15990;SDS011;8100;50.994;4.538;2023-05-21T08:36:21;7.35;;;5.07;;
15990;SDS011;8100;50.994;4.538;2023-05-21T08:39:09;8.10;;;5.70;;
15990;SDS011;8100;50.994;4.538;2023-05-21T08:42:00;7.68;;;5.30;;
15990;SDS011;8100;50.994;4.538;2023-05-21T08:44:55;9.13;;;6.05;;
15990;SDS011;8100;50.994;4.538;2023-05-21T08:47:46;7.70;;;5.13;;
15990;SDS011;8100;50.994;4.538;2023-05-21T08:50:34;7.57;;;5.95;;
15990;SDS011;8100;50.994;4.538;2023-05-21T08:53:21;7.82;;;5.65;;
15990;SDS011;8100;50.994;4.538;2023-05-21T08:56:09;9.20;;;5.32;;
15990;SDS011;8100;50.994;4.538;2023-05-21T08:59:01;9.45;;;6.18;;
15990;SDS011;8100;50.994;4.538;2023-05-21T09:01:48;9.93;;;6.28;;
15990;SDS011;8100;50.994;4.538;2023-05-21T09:04:37;7.38;;;6.00;;
15990;SDS011;8100;50.994;4.538;2023-05-21T09:07:25;8.82;;;6.28;;
15990;SDS011;8100;50.994;4.538;2023-05-21T09:10:13;9.32;;;6.35;;
15990;SDS011;8100;50.994;4.538;2023-05-21T09:13:07;9.93;;;6.47;;
15990;SDS011;8100;50.994;4.538;2023-05-21T09:15:58;7.85;;;5.90;;
15990;SDS011;8100;50.994;4.538;2023-05-21T09:18:45;9.38;;;6.05;;
15990;SDS011;8100;50.994;4.538;2023-05-21T09:21:33;8.90;;;5.93;;
15990;SDS011;8100;50.994;4.538;2023-05-21T09:24:20;9.18;;;6.47;;
15990;SDS011;8100;50.994;4.538;2023-05-21T09:27:08;9.02;;;6.18;;
15990;SDS011;8100;50.994;4.538;2023-05-21T09:29:55;8.05;;;6.15;;
15990;SDS011;8100;50.994;4.538;2023-05-21T09:32:44;8.57;;;5.30;;
15990;SDS011;8100;50.994;4.538;2023-05-21T09:35:43;8.10;;;5.88;;
15990;SDS011;8100;50.994;4.538;2023-05-21T09:38:32;8.85;;;6.97;;
15990;SDS011;8100;50.994;4.538;2023-05-21T09:41:20;8.93;;;7.05;;
15990;SDS011;8100;50.994;4.538;2023-05-21T09:44:17;7.93;;;6.00;;
15990;SDS011;8100;50.994;4.538;2023-05-21T09:47:04;9.45;;;6.97;;
15990;SDS011;8100;50.994;4.538;2023-05-21T09:49:53;11.30;;;6.75;;
15990;SDS011;8100;50.994;4.538;2023-05-21T09:52:43;6.15;;;3.25;;
15990;SDS011;8100;50.994;4.538;2023-05-21T09:55:31;9.02;;;6.45;;
15990;SDS011;8100;50.994;4.538;2023-05-21T09:58:22;9.48;;;6.35;;
15990;SDS011;8100;50.994;4.538;2023-05-21T10:01:10;10.63;;;7.25;;
15990;SDS011;8100;50.994;4.538;2023-05-21T10:03:57;11.70;;;7.68;;
15990;SDS011;8100;50.994;4.538;2023-05-21T10:06:47;11.25;;;7.13;;
15990;SDS011;8100;50.994;4.538;2023-05-21T10:09:35;9.38;;;6.57;;
15990;SDS011;8100;50.994;4.538;2023-05-21T10:12:23;10.60;;;7.70;;
15990;SDS011;8100;50.994;4.538;2023-05-21T10:15:12;11.48;;;8.15;;
15990;SDS011;8100;50.994;4.538;2023-05-21T10:18:02;11.63;;;7.80;;
15990;SDS011;8100;50.994;4.538;2023-05-21T10:20:50;10.35;;;8.00;;
15990;SDS011;8100;50.994;4.538;2023-05-21T10:23:40;11.40;;;7.57;;
15990;SDS011;8100;50.994;4.538;2023-05-21T10:26:29;11.10;;;8.10;;
15990;SDS011;8100;50.994;4.538;2023-05-21T10:29:16;8.70;;;6.05;;
15990;SDS011;8100;50.994;4.538;2023-05-21T10:32:06;11.77;;;7.70;;
15990;SDS011;8100;50.994;4.538;2023-05-21T10:34:53;12.50;;;8.40;;
15990;SDS011;8100;50.994;4.538;2023-05-21T10:37:42;11.75;;;7.90;;
15990;SDS011;8100;50.994;4.538;2023-05-21T10:40:32;10.75;;;8.05;;
15990;SDS011;8100;50.994;4.538;2023-05-21T10:43:33;12.73;;;9.20;;
15990;SDS011;8100;50.994;4.538;2023-05-21T10:46:38;11.25;;;8.10;;
15990;SDS011;8100;50.994;4.538;2023-05-21T10:49:40;11.15;;;8.32;;
15990;SDS011;8100;50.994;4.538;2023-05-21T10:52:43;11.38;;;8.90;;
15990;SDS011;8100;50.994;4.538;2023-05-21T10:55:48;10.80;;;7.32;;
15990;SDS011;8100;50.994;4.538;2023-05-21T10:58:51;11.63;;;8.82;;
15990;SDS011;8100;50.994;4.538;2023-05-21T11:01:56;12.57;;;8.75;;
15990;SDS011;8100;50.994;4.538;2023-05-21T11:04:43;10.77;;;8.57;;
15990;SDS011;8100;50.994;4.538;2023-05-21T11:07:49;14.23;;;9.10;;
15990;SDS011;8100;50.994;4.538;2023-05-21T11:10:38;11.35;;;8.60;;
15990;SDS011;8100;50.994;4.538;2023-05-21T11:13:43;9.70;;;6.88;;
15990;SDS011;8100;50.994;4.538;2023-05-21T11:16:34;12.90;;;9.23;;
15990;SDS011;8100;50.994;4.538;2023-05-21T11:19:25;17.40;;;9.32;;
15990;SDS011;8100;50.994;4.538;2023-05-21T11:22:20;14.88;;;8.73;;
15990;SDS011;8100;50.994;4.538;2023-05-21T11:25:08;12.27;;;9.52;;
15990;SDS011;8100;50.994;4.538;2023-05-21T11:27:56;12.13;;;8.05;;
15990;SDS011;8100;50.994;4.538;2023-05-21T11:34:13;12.75;;;9.32;;
15990;SDS011;8100;50.994;4.538;2023-05-21T11:40:15;12.77;;;9.65;;
15990;SDS011;8100;50.994;4.538;2023-05-21T11:43:08;11.38;;;8.73;;
15990;SDS011;8100;50.994;4.538;2023-05-21T11:45:55;13.00;;;9.05;;
15990;SDS011;8100;50.994;4.538;2023-05-21T11:48:44;15.52;;;9.93;;
15990;SDS011;8100;50.994;4.538;2023-05-21T11:51:33;13.63;;;8.73;;
15990;SDS011;8100;50.994;4.538;2023-05-21T11:54:22;12.95;;;8.98;;
15990;SDS011;8100;50.994;4.538;2023-05-21T11:57:10;13.50;;;9.80;;
15990;SDS011;8100;50.994;4.538;2023-05-21T12:00:00;13.77;;;10.00;;
15990;SDS011;8100;50.994;4.538;2023-05-21T12:02:57;13.30;;;8.85;;
15990;SDS011;8100;50.994;4.538;2023-05-21T12:05:45;13.05;;;8.60;;
15990;SDS011;8100;50.994;4.538;2023-05-21T12:08:33;14.57;;;9.38;;
15990;SDS011;8100;50.994;4.538;2023-05-21T12:11:22;13.35;;;9.32;;
15990;SDS011;8100;50.994;4.538;2023-05-21T12:14:11;11.90;;;8.45;;
15990;SDS011;8100;50.994;4.538;2023-05-21T12:16:59;12.38;;;8.98;;
15990;SDS011;8100;50.994;4.538;2023-05-21T12:19:50;12.52;;;9.25;;
15990;SDS011;8100;50.994;4.538;2023-05-21T12:22:40;12.02;;;9.45;;
15990;SDS011;8100;50.994;4.538;2023-05-21T12:25:28;13.18;;;9.57;;
15990;SDS011;8100;50.994;4.538;2023-05-21T12:28:16;9.55;;;6.22;;
15990;SDS011;8100;50.994;4.538;2023-05-21T12:31:06;12.95;;;8.95;;
15990;SDS011;8100;50.994;4.538;2023-05-21T12:33:59;10.93;;;6.22;;
15990;SDS011;8100;50.994;4.538;2023-05-21T12:36:48;16.50;;;9.93;;
15990;SDS011;8100;50.994;4.538;2023-05-21T12:39:37;12.30;;;8.77;;
15990;SDS011;8100;50.994;4.538;2023-05-21T12:42:26;11.63;;;8.68;;
15990;SDS011;8100;50.994;4.538;2023-05-21T12:45:15;12.55;;;9.13;;
15990;SDS011;8100;50.994;4.538;2023-05-21T12:48:03;16.55;;;9.70;;
15990;SDS011;8100;50.994;4.538;2023-05-21T12:50:51;11.15;;;8.20;;
15990;SDS011;8100;50.994;4.538;2023-05-21T12:53:40;10.95;;;8.07;;
15990;SDS011;8100;50.994;4.538;2023-05-21T12:56:28;11.88;;;9.20;;
15990;SDS011;8100;50.994;4.538;2023-05-21T12:59:38;11.63;;;9.15;;
15990;SDS011;8100;50.994;4.538;2023-05-21T13:02:37;13.45;;;9.10;;
15990;SDS011;8100;50.994;4.538;2023-05-21T13:05:25;12.55;;;8.88;;
15990;SDS011;8100;50.994;4.538;2023-05-21T13:08:12;13.40;;;9.60;;
15990;SDS011;8100;50.994;4.538;2023-05-21T13:11:01;11.18;;;8.50;;
15990;SDS011;8100;50.994;4.538;2023-05-21T13:13:50;14.73;;;8.70;;
15990;SDS011;8100;50.994;4.538;2023-05-21T13:16:37;12.10;;;8.77;;
15990;SDS011;8100;50.994;4.538;2023-05-21T13:19:25;14.77;;;9.45;;
15990;SDS011;8100;50.994;4.538;2023-05-21T13:22:13;11.35;;;9.00;;
15990;SDS011;8100;50.994;4.538;2023-05-21T13:25:01;15.70;;;8.85;;
15990;SDS011;8100;50.994;4.538;2023-05-21T13:27:48;13.65;;;8.85;;
15990;SDS011;8100;50.994;4.538;2023-05-21T13:30:38;13.25;;;8.75;;
15990;SDS011;8100;50.994;4.538;2023-05-21T13:33:26;13.15;;;8.95;;
15990;SDS011;8100;50.994;4.538;2023-05-21T13:36:13;13.02;;;8.77;;
15990;SDS011;8100;50.994;4.538;2023-05-21T13:39:00;11.98;;;8.95;;
15990;SDS011;8100;50.994;4.538;2023-05-21T13:41:48;10.75;;;8.18;;
15990;SDS011;8100;50.994;4.538;2023-05-21T13:44:35;13.13;;;9.45;;
15990;SDS011;8100;50.994;4.538;2023-05-21T13:47:24;14.55;;;9.65;;
15990;SDS011;8100;50.994;4.538;2023-05-21T13:50:12;14.10;;;9.90;;
15990;SDS011;8100;50.994;4.538;2023-05-21T13:52:59;12.57;;;8.80;;
15990;SDS011;8100;50.994;4.538;2023-05-21T13:55:47;14.20;;;8.95;;
15990;SDS011;8100;50.994;4.538;2023-05-21T13:58:34;10.10;;;7.82;;
15990;SDS011;8100;50.994;4.538;2023-05-21T14:01:22;13.57;;;8.82;;
15990;SDS011;8100;50.994;4.538;2023-05-21T14:04:11;12.82;;;8.45;;
15990;SDS011;8100;50.994;4.538;2023-05-21T14:06:58;13.35;;;9.43;;
15990;SDS011;8100;50.994;4.538;2023-05-21T14:09:47;12.13;;;9.10;;
15990;SDS011;8100;50.994;4.538;2023-05-21T14:12:34;10.88;;;8.25;;
15990;SDS011;8100;50.994;4.538;2023-05-21T14:15:22;11.02;;;8.02;;
15990;SDS011;8100;50.994;4.538;2023-05-21T14:18:10;12.35;;;8.55;;
15990;SDS011;8100;50.994;4.538;2023-05-21T14:20:58;14.90;;;8.95;;
15990;SDS011;8100;50.994;4.538;2023-05-21T14:23:46;16.13;;;8.95;;
15990;SDS011;8100;50.994;4.538;2023-05-21T14:26:35;11.85;;;7.80;;
15990;SDS011;8100;50.994;4.538;2023-05-21T14:29:25;11.60;;;8.55;;
15990;SDS011;8100;50.994;4.538;2023-05-21T14:32:12;11.32;;;7.70;;
15990;SDS011;8100;50.994;4.538;2023-05-21T14:35:01;12.82;;;8.43;;
15990;SDS011;8100;50.994;4.538;2023-05-21T14:37:51;11.45;;;8.98;;
15990;SDS011;8100;50.994;4.538;2023-05-21T14:40:39;11.88;;;9.02;;
15990;SDS011;8100;50.994;4.538;2023-05-21T14:43:26;14.40;;;9.80;;
15990;SDS011;8100;50.994;4.538;2023-05-21T14:46:13;17.30;;;8.93;;
15990;SDS011;8100;50.994;4.538;2023-05-21T14:49:01;13.18;;;8.48;;
15990;SDS011;8100;50.994;4.538;2023-05-21T14:51:48;14.77;;;8.18;;
15990;SDS011;8100;50.994;4.538;2023-05-21T14:54:37;14.13;;;9.15;;
15990;SDS011;8100;50.994;4.538;2023-05-21T14:57:24;15.13;;;9.18;;
15990;SDS011;8100;50.994;4.538;2023-05-21T15:00:11;12.90;;;8.57;;
15990;SDS011;8100;50.994;4.538;2023-05-21T15:02:59;14.43;;;9.95;;
15990;SDS011;8100;50.994;4.538;2023-05-21T15:05:47;11.75;;;9.00;;
15990;SDS011;8100;50.994;4.538;2023-05-21T15:08:34;13.35;;;9.00;;
15990;SDS011;8100;50.994;4.538;2023-05-21T15:11:23;13.02;;;9.07;;
15990;SDS011;8100;50.994;4.538;2023-05-21T15:14:10;13.88;;;9.07;;
15990;SDS011;8100;50.994;4.538;2023-05-21T15:16:58;12.32;;;9.27;;
15990;SDS011;8100;50.994;4.538;2023-05-21T15:19:45;13.13;;;9.63;;
15990;SDS011;8100;50.994;4.538;2023-05-21T15:22:32;11.77;;;9.60;;
15990;SDS011;8100;50.994;4.538;2023-05-21T15:25:20;12.30;;;9.02;;
15990;SDS011;8100;50.994;4.538;2023-05-21T15:28:09;11.48;;;8.95;;
15990;SDS011;8100;50.994;4.538;2023-05-21T15:30:57;15.20;;;10.00;;
15990;SDS011;8100;50.994;4.538;2023-05-21T15:33:44;12.82;;;9.10;;
15990;SDS011;8100;50.994;4.538;2023-05-21T15:36:31;14.70;;;8.40;;
15990;SDS011;8100;50.994;4.538;2023-05-21T15:39:18;10.70;;;8.02;;
15990;SDS011;8100;50.994;4.538;2023-05-21T15:42:06;11.90;;;8.60;;
15990;SDS011;8100;50.994;4.538;2023-05-21T15:44:54;12.48;;;8.07;;
15990;SDS011;8100;50.994;4.538;2023-05-21T15:47:42;11.15;;;8.48;;
15990;SDS011;8100;50.994;4.538;2023-05-21T15:50:29;14.05;;;9.18;;
15990;SDS011;8100;50.994;4.538;2023-05-21T15:53:16;12.43;;;8.80;;
15990;SDS011;8100;50.994;4.538;2023-05-21T15:56:04;10.98;;;8.10;;
15990;SDS011;8100;50.994;4.538;2023-05-21T15:58:53;13.73;;;8.95;;
15990;SDS011;8100;50.994;4.538;2023-05-21T16:01:44;9.93;;;8.05;;
15990;SDS011;8100;50.994;4.538;2023-05-21T16:04:32;11.40;;;7.38;;
15990;SDS011;8100;50.994;4.538;2023-05-21T16:07:19;10.57;;;8.88;;
15990;SDS011;8100;50.994;4.538;2023-05-21T16:10:08;10.07;;;8.23;;
15990;SDS011;8100;50.994;4.538;2023-05-21T16:12:56;12.77;;;8.35;;
15990;SDS011;8100;50.994;4.538;2023-05-21T16:15:44;13.40;;;7.60;;
15990;SDS011;8100;50.994;4.538;2023-05-21T16:18:32;10.50;;;7.53;;
15990;SDS011;8100;50.994;4.538;2023-05-21T16:21:22;11.18;;;7.43;;
15990;SDS011;8100;50.994;4.538;2023-05-21T16:24:10;10.95;;;7.70;;
15990;SDS011;8100;50.994;4.538;2023-05-21T16:26:57;10.88;;;7.07;;
15990;SDS011;8100;50.994;4.538;2023-05-21T16:29:45;10.60;;;7.22;;
15990;SDS011;8100;50.994;4.538;2023-05-21T16:32:32;10.80;;;8.10;;
15990;SDS011;8100;50.994;4.538;2023-05-21T16:35:21;11.25;;;8.07;;
15990;SDS011;8100;50.994;4.538;2023-05-21T16:38:08;11.50;;;7.57;;
15990;SDS011;8100;50.994;4.538;2023-05-21T16:40:55;12.10;;;7.28;;
15990;SDS011;8100;50.994;4.538;2023-05-21T16:43:43;9.60;;;7.13;;
15990;SDS011;8100;50.994;4.538;2023-05-21T16:46:30;10.95;;;7.35;;
15990;SDS011;8100;50.994;4.538;2023-05-21T16:49:17;10.32;;;7.97;;
15990;SDS011;8100;50.994;4.538;2023-05-21T16:52:06;9.25;;;7.18;;
15990;SDS011;8100;50.994;4.538;2023-05-21T16:54:53;11.63;;;7.40;;
15990;SDS011;8100;50.994;4.538;2023-05-21T16:57:41;11.68;;;7.75;;
15990;SDS011;8100;50.994;4.538;2023-05-21T17:00:28;8.88;;;7.03;;
15990;SDS011;8100;50.994;4.538;2023-05-21T17:03:15;11.57;;;6.85;;
15990;SDS011;8100;50.994;4.538;2023-05-21T17:06:03;11.40;;;7.55;;
15990;SDS011;8100;50.994;4.538;2023-05-21T17:08:52;10.23;;;7.60;;
15990;SDS011;8100;50.994;4.538;2023-05-21T17:11:39;11.68;;;7.35;;